sensor_id;sensor_type;location;lat;lon;timestamp;temperature;humidity
17986;DHT22;9118;48.122;11.546;2023-06-01T00:02:00;19.30;96.30
17986;DHT22;9118;48.122;11.546;2023-06-01T00:04:27;19.70;95.60
17986;DHT22;9118;48.122;11.546;2023-06-01T00:06:55;20.30;95.80
17986;DHT22;9118;48.122;11.546;2023-06-01T00:09:27;18.90;95.30
17986;DHT22;9118;48.122;11.546;2023-06-01T00:12:02;20.30;95.00
17986;DHT22;9118;48.122;11.546;2023-06-01T00:14:31;19.30;95.70
17986;DHT22;9118;48.122;11.546;2023-06-01T00:16:58;18.80;95.70
17986;DHT22;9118;48.122;11.546;2023-06-01T00:19:25;19.00;96.60
17986;DHT22;9118;48.122;11.546;2023-06-01T00:21:53;18.80;95.60
17986;DHT22;9118;48.122;11.546;2023-06-01T00:24:21;18.70;95.80
17986;DHT22;9118;48.122;11.546;2023-06-01T00:26:51;18.60;95.90
17986;DHT22;9118;48.122;11.546;2023-06-01T00:29:18;18.60;96.00
17986;DHT22;9118;48.122;11.546;2023-06-01T00:31:46;18.90;97.40
17986;DHT22;9118;48.122;11.546;2023-06-01T00:34:14;18.70;96.70
17986;DHT22;9118;48.122;11.546;2023-06-01T00:36:41;18.80;96.80
17986;DHT22;9118;48.122;11.546;2023-06-01T00:39:09;18.60;96.70
17986;DHT22;9118;48.122;11.546;2023-06-01T00:41:36;18.60;96.20
17986;DHT22;9118;48.122;11.546;2023-06-01T00:44:28;18.60;96.90
17986;DHT22;9118;48.122;11.546;2023-06-01T00:46:56;17.70;95.90
17986;DHT22;9118;48.122;11.546;2023-06-01T00:49:25;18.50;96.30
17986;DHT22;9118;48.122;11.546;2023-06-01T00:51:52;18.60;97.20
17986;DHT22;9118;48.122;11.546;2023-06-01T00:54:20;19.00;97.70
17986;DHT22;9118;48.122;11.546;2023-06-01T00:56:47;18.40;96.70
17986;DHT22;9118;48.122;11.546;2023-06-01T00:59:33;18.20;96.40
17986;DHT22;9118;48.122;11.546;2023-06-01T01:02:05;19.00;97.10
17986;DHT22;9118;48.122;11.546;2023-06-01T01:04:33;18.20;97.20
17986;DHT22;9118;48.122;11.546;2023-06-01T01:07:09;18.20;97.40
17986;DHT22;9118;48.122;11.546;2023-06-01T01:09:53;18.20;96.70
17986;DHT22;9118;48.122;11.546;2023-06-01T01:12:28;18.50;97.30
17986;DHT22;9118;48.122;11.546;2023-06-01T01:15:12;18.20;96.80
17986;DHT22;9118;48.122;11.546;2023-06-01T01:17:59;18.20;97.10
17986;DHT22;9118;48.122;11.546;2023-06-01T01:20:39;18.10;96.90
17986;DHT22;9118;48.122;11.546;2023-06-01T01:23:36;18.10;97.00
17986;DHT22;9118;48.122;11.546;2023-06-01T01:26:14;17.80;96.60
17986;DHT22;9118;48.122;11.546;2023-06-01T01:28:47;18.50;97.60
17986;DHT22;9118;48.122;11.546;2023-06-01T01:31:19;18.30;98.00
17986;DHT22;9118;48.122;11.546;2023-06-01T01:33:48;18.10;97.20
17986;DHT22;9118;48.122;11.546;2023-06-01T01:36:18;18.00;97.10
17986;DHT22;9118;48.122;11.546;2023-06-01T01:38:47;18.10;97.20
17986;DHT22;9118;48.122;11.546;2023-06-01T01:41:16;18.00;97.60
17986;DHT22;9118;48.122;11.546;2023-06-01T01:43:46;17.90;97.30
17986;DHT22;9118;48.122;11.546;2023-06-01T01:46:21;17.80;98.00
17986;DHT22;9118;48.122;11.546;2023-06-01T01:48:55;18.10;97.80
17986;DHT22;9118;48.122;11.546;2023-06-01T01:51:44;18.70;98.10
17986;DHT22;9118;48.122;11.546;2023-06-01T01:54:28;18.00;97.90
17986;DHT22;9118;48.122;11.546;2023-06-01T01:57:13;17.90;97.70
17986;DHT22;9118;48.122;11.546;2023-06-01T01:59:46;17.70;98.00
17986;DHT22;9118;48.122;11.546;2023-06-01T02:02:14;17.80;98.30
17986;DHT22;9118;48.122;11.546;2023-06-01T02:04:43;17.80;98.50
17986;DHT22;9118;48.122;11.546;2023-06-01T02:07:12;17.90;98.90
17986;DHT22;9118;48.122;11.546;2023-06-01T02:09:40;17.50;98.70
17986;DHT22;9118;48.122;11.546;2023-06-01T02:12:08;17.20;98.80
17986;DHT22;9118;48.122;11.546;2023-06-01T02:14:35;17.70;98.20
17986;DHT22;9118;48.122;11.546;2023-06-01T02:17:10;17.70;98.80
17986;DHT22;9118;48.122;11.546;2023-06-01T02:19:41;17.40;98.30
17986;DHT22;9118;48.122;11.546;2023-06-01T02:22:09;18.10;98.90
17986;DHT22;9118;48.122;11.546;2023-06-01T02:24:37;17.60;99.30
17986;DHT22;9118;48.122;11.546;2023-06-01T02:27:04;17.30;98.90
17986;DHT22;9118;48.122;11.546;2023-06-01T02:29:32;17.70;99.00
17986;DHT22;9118;48.122;11.546;2023-06-01T02:32:00;17.40;99.00
17986;DHT22;9118;48.122;11.546;2023-06-01T02:34:30;17.80;98.80
17986;DHT22;9118;48.122;11.546;2023-06-01T02:36:57;17.60;99.00
17986;DHT22;9118;48.122;11.546;2023-06-01T02:39:24;16.70;98.80
17986;DHT22;9118;48.122;11.546;2023-06-01T02:41:52;17.30;98.90
17986;DHT22;9118;48.122;11.546;2023-06-01T02:44:20;17.30;99.00
17986;DHT22;9118;48.122;11.546;2023-06-01T02:46:47;17.80;99.90
17986;DHT22;9118;48.122;11.546;2023-06-01T02:49:16;16.90;98.90
17986;DHT22;9118;48.122;11.546;2023-06-01T02:51:45;17.40;99.10
17986;DHT22;9118;48.122;11.546;2023-06-01T02:54:12;17.30;99.30
17986;DHT22;9118;48.122;11.546;2023-06-01T02:56:40;17.00;98.80
17986;DHT22;9118;48.122;11.546;2023-06-01T02:59:09;17.10;98.90
17986;DHT22;9118;48.122;11.546;2023-06-01T03:01:36;17.10;99.10
17986;DHT22;9118;48.122;11.546;2023-06-01T03:04:04;16.30;99.00
17986;DHT22;9118;48.122;11.546;2023-06-01T03:06:32;17.10;99.40
17986;DHT22;9118;48.122;11.546;2023-06-01T03:09:05;17.10;99.60
17986;DHT22;9118;48.122;11.546;2023-06-01T03:11:44;17.90;99.50
17986;DHT22;9118;48.122;11.546;2023-06-01T03:14:14;17.00;99.30
17986;DHT22;9118;48.122;11.546;2023-06-01T03:16:42;17.00;99.10
17986;DHT22;9118;48.122;11.546;2023-06-01T03:19:09;16.70;99.10
17986;DHT22;9118;48.122;11.546;2023-06-01T03:21:37;17.80;99.60
17986;DHT22;9118;48.122;11.546;2023-06-01T03:24:07;17.50;99.70
17986;DHT22;9118;48.122;11.546;2023-06-01T03:26:37;16.90;99.70
17986;DHT22;9118;48.122;11.546;2023-06-01T03:29:04;17.60;99.50
17986;DHT22;9118;48.122;11.546;2023-06-01T03:31:31;16.90;99.50
17986;DHT22;9118;48.122;11.546;2023-06-01T03:34:00;16.90;99.30
17986;DHT22;9118;48.122;11.546;2023-06-01T03:36:27;16.90;99.50
17986;DHT22;9118;48.122;11.546;2023-06-01T03:38:54;16.90;99.40
17986;DHT22;9118;48.122;11.546;2023-06-01T03:41:23;16.90;99.50
17986;DHT22;9118;48.122;11.546;2023-06-01T03:43:50;16.80;99.40
17986;DHT22;9118;48.122;11.546;2023-06-01T03:46:18;17.20;99.90
17986;DHT22;9118;48.122;11.546;2023-06-01T03:48:45;16.30;99.00
17986;DHT22;9118;48.122;11.546;2023-06-01T03:51:14;16.90;97.20
17986;DHT22;9118;48.122;11.546;2023-06-01T03:53:41;17.00;98.30
17986;DHT22;9118;48.122;11.546;2023-06-01T03:56:09;17.20;98.20
17986;DHT22;9118;48.122;11.546;2023-06-01T03:58:38;17.20;98.40
17986;DHT22;9118;48.122;11.546;2023-06-01T04:01:05;17.20;98.70
17986;DHT22;9118;48.122;11.546;2023-06-01T04:03:38;17.30;98.20
17986;DHT22;9118;48.122;11.546;2023-06-01T04:06:06;17.90;97.00
17986;DHT22;9118;48.122;11.546;2023-06-01T04:08:39;17.20;97.60
17986;DHT22;9118;48.122;11.546;2023-06-01T04:11:18;17.20;97.50
17986;DHT22;9118;48.122;11.546;2023-06-01T04:13:48;16.20;96.50
17986;DHT22;9118;48.122;11.546;2023-06-01T04:16:17;17.30;97.60
17986;DHT22;9118;48.122;11.546;2023-06-01T04:18:47;17.10;97.60
17986;DHT22;9118;48.122;11.546;2023-06-01T04:21:15;17.20;97.10
17986;DHT22;9118;48.122;11.546;2023-06-01T04:23:43;15.20;96.50
17986;DHT22;9118;48.122;11.546;2023-06-01T04:26:10;17.20;97.20
17986;DHT22;9118;48.122;11.546;2023-06-01T04:28:39;17.40;97.40
17986;DHT22;9118;48.122;11.546;2023-06-01T04:31:12;17.30;97.30
17986;DHT22;9118;48.122;11.546;2023-06-01T04:33:43;17.30;96.40
17986;DHT22;9118;48.122;11.546;2023-06-01T04:36:12;18.10;97.30
17986;DHT22;9118;48.122;11.546;2023-06-01T04:38:40;17.60;97.20
17986;DHT22;9118;48.122;11.546;2023-06-01T04:41:09;17.60;97.20
17986;DHT22;9118;48.122;11.546;2023-06-01T04:43:44;17.40;96.60
17986;DHT22;9118;48.122;11.546;2023-06-01T04:46:19;17.50;96.80
17986;DHT22;9118;48.122;11.546;2023-06-01T04:48:51;17.80;96.90
17986;DHT22;9118;48.122;11.546;2023-06-01T04:51:28;16.60;96.00
17986;DHT22;9118;48.122;11.546;2023-06-01T04:53:57;17.70;96.20
17986;DHT22;9118;48.122;11.546;2023-06-01T04:56:25;17.50;96.70
17986;DHT22;9118;48.122;11.546;2023-06-01T04:58:55;17.60;96.30
17986;DHT22;9118;48.122;11.546;2023-06-01T05:01:29;17.60;97.10
17986;DHT22;9118;48.122;11.546;2023-06-01T05:03:58;17.90;97.60
17986;DHT22;9118;48.122;11.546;2023-06-01T05:06:27;17.40;97.30
17986;DHT22;9118;48.122;11.546;2023-06-01T05:09:08;18.90;97.40
17986;DHT22;9118;48.122;11.546;2023-06-01T05:11:51;17.80;97.00
17986;DHT22;9118;48.122;11.546;2023-06-01T05:14:19;18.20;96.00
17986;DHT22;9118;48.122;11.546;2023-06-01T05:16:51;18.10;97.10
17986;DHT22;9118;48.122;11.546;2023-06-01T05:19:21;17.80;97.80
17986;DHT22;9118;48.122;11.546;2023-06-01T05:21:48;18.40;97.40
17986;DHT22;9118;48.122;11.546;2023-06-01T05:24:16;17.60;97.60
17986;DHT22;9118;48.122;11.546;2023-06-01T05:26:45;16.80;96.80
17986;DHT22;9118;48.122;11.546;2023-06-01T05:29:15;17.50;97.00
17986;DHT22;9118;48.122;11.546;2023-06-01T05:31:43;18.20;98.10
17986;DHT22;9118;48.122;11.546;2023-06-01T05:34:38;18.00;97.70
17986;DHT22;9118;48.122;11.546;2023-06-01T05:37:13;17.00;96.10
17986;DHT22;9118;48.122;11.546;2023-06-01T05:39:43;18.20;97.50
17986;DHT22;9118;48.122;11.546;2023-06-01T05:42:22;18.20;97.50
17986;DHT22;9118;48.122;11.546;2023-06-01T05:45:07;19.00;98.20
17986;DHT22;9118;48.122;11.546;2023-06-01T05:53:42;18.30;96.00
17986;DHT22;9118;48.122;11.546;2023-06-01T05:56:24;19.80;97.30
17986;DHT22;9118;48.122;11.546;2023-06-01T05:59:15;18.50;96.10
17986;DHT22;9118;48.122;11.546;2023-06-01T06:01:56;18.60;96.40
17986;DHT22;9118;48.122;11.546;2023-06-01T06:04:38;18.60;96.80
17986;DHT22;9118;48.122;11.546;2023-06-01T06:07:22;18.70;95.70
17986;DHT22;9118;48.122;11.546;2023-06-01T06:13:21;18.00;95.20
17986;DHT22;9118;48.122;11.546;2023-06-01T06:15:50;19.20;95.60
17986;DHT22;9118;48.122;11.546;2023-06-01T06:18:18;19.20;96.60
17986;DHT22;9118;48.122;11.546;2023-06-01T06:20:59;18.30;95.50
17986;DHT22;9118;48.122;11.546;2023-06-01T06:23:26;19.20;96.70
17986;DHT22;9118;48.122;11.546;2023-06-01T06:25:57;19.10;96.40
17986;DHT22;9118;48.122;11.546;2023-06-01T06:31:29;19.10;95.70
17986;DHT22;9118;48.122;11.546;2023-06-01T06:34:12;19.20;95.80
17986;DHT22;9118;48.122;11.546;2023-06-01T06:36:56;19.20;95.50
17986;DHT22;9118;48.122;11.546;2023-06-01T06:39:40;19.50;95.60
17986;DHT22;9118;48.122;11.546;2023-06-01T06:42:23;19.30;95.30
17986;DHT22;9118;48.122;11.546;2023-06-01T06:45:08;21.50;96.20
17986;DHT22;9118;48.122;11.546;2023-06-01T06:54:04;19.80;94.80
17986;DHT22;9118;48.122;11.546;2023-06-01T06:56:45;19.80;95.90
17986;DHT22;9118;48.122;11.546;2023-06-01T06:59:26;19.90;96.90
17986;DHT22;9118;48.122;11.546;2023-06-01T07:01:54;20.50;96.60
17986;DHT22;9118;48.122;11.546;2023-06-01T07:04:35;18.80;94.80
17986;DHT22;9118;48.122;11.546;2023-06-01T07:07:07;20.00;95.20
17986;DHT22;9118;48.122;11.546;2023-06-01T07:12:48;20.40;95.60
17986;DHT22;9118;48.122;11.546;2023-06-01T07:15:20;20.00;95.00
17986;DHT22;9118;48.122;11.546;2023-06-01T07:17:53;19.70;94.30
17986;DHT22;9118;48.122;11.546;2023-06-01T07:20:21;20.20;95.20
17986;DHT22;9118;48.122;11.546;2023-06-01T07:23:02;20.30;95.00
17986;DHT22;9118;48.122;11.546;2023-06-01T07:25:33;20.30;95.00
17986;DHT22;9118;48.122;11.546;2023-06-01T07:28:02;20.30;95.00
17986;DHT22;9118;48.122;11.546;2023-06-01T07:30:32;20.30;94.50
17986;DHT22;9118;48.122;11.546;2023-06-01T07:33:00;20.80;94.60
17986;DHT22;9118;48.122;11.546;2023-06-01T07:35:31;20.30;94.40
17986;DHT22;9118;48.122;11.546;2023-06-01T07:38:13;20.40;94.10
17986;DHT22;9118;48.122;11.546;2023-06-01T07:40:56;20.30;94.40
17986;DHT22;9118;48.122;11.546;2023-06-01T07:43:27;20.50;94.50
17986;DHT22;9118;48.122;11.546;2023-06-01T07:45:55;20.50;94.30
17986;DHT22;9118;48.122;11.546;2023-06-01T07:48:36;20.70;94.20
17986;DHT22;9118;48.122;11.546;2023-06-01T07:51:05;21.10;95.20
17986;DHT22;9118;48.122;11.546;2023-06-01T07:53:34;20.90;95.30
17986;DHT22;9118;48.122;11.546;2023-06-01T07:56:19;20.70;93.80
17986;DHT22;9118;48.122;11.546;2023-06-01T07:58:52;21.00;94.30
17986;DHT22;9118;48.122;11.546;2023-06-01T08:01:21;23.10;95.40
17986;DHT22;9118;48.122;11.546;2023-06-01T08:04:03;18.70;93.00
17986;DHT22;9118;48.122;11.546;2023-06-01T08:06:45;21.30;93.00
17986;DHT22;9118;48.122;11.546;2023-06-01T08:09:28;21.30;93.40
17986;DHT22;9118;48.122;11.546;2023-06-01T08:12:00;21.40;93.50
17986;DHT22;9118;48.122;11.546;2023-06-01T08:14:45;20.10;92.90
17986;DHT22;9118;48.122;11.546;2023-06-01T08:17:26;21.50;94.40
17986;DHT22;9118;48.122;11.546;2023-06-01T08:19:55;21.30;93.60
17986;DHT22;9118;48.122;11.546;2023-06-01T08:22:25;21.30;93.40
17986;DHT22;9118;48.122;11.546;2023-06-01T08:25:08;21.50;92.90
17986;DHT22;9118;48.122;11.546;2023-06-01T08:27:49;21.70;92.60
17986;DHT22;9118;48.122;11.546;2023-06-01T08:33:40;22.10;93.20
17986;DHT22;9118;48.122;11.546;2023-06-01T08:36:08;22.00;92.40
17986;DHT22;9118;48.122;11.546;2023-06-01T08:39:19;23.00;94.10
17986;DHT22;9118;48.122;11.546;2023-06-01T08:41:57;22.30;92.10
17986;DHT22;9118;48.122;11.546;2023-06-01T08:44:35;22.40;91.50
17986;DHT22;9118;48.122;11.546;2023-06-01T08:47:46;22.20;91.70
17986;DHT22;9118;48.122;11.546;2023-06-01T08:50:31;23.50;92.00
17986;DHT22;9118;48.122;11.546;2023-06-01T08:53:01;23.90;91.70
17986;DHT22;9118;48.122;11.546;2023-06-01T08:55:32;22.30;91.50
17986;DHT22;9118;48.122;11.546;2023-06-01T08:58:00;22.80;91.70
17986;DHT22;9118;48.122;11.546;2023-06-01T09:00:31;23.20;92.80
17986;DHT22;9118;48.122;11.546;2023-06-01T09:03:03;23.20;91.40
17986;DHT22;9118;48.122;11.546;2023-06-01T09:08:46;23.00;91.10
17986;DHT22;9118;48.122;11.546;2023-06-01T09:11:14;23.20;91.80
17986;DHT22;9118;48.122;11.546;2023-06-01T09:13:44;23.00;91.20
17986;DHT22;9118;48.122;11.546;2023-06-01T09:16:18;23.10;91.30
17986;DHT22;9118;48.122;11.546;2023-06-01T09:18:53;23.30;91.00
17986;DHT22;9118;48.122;11.546;2023-06-01T09:21:21;23.40;92.10
17986;DHT22;9118;48.122;11.546;2023-06-01T09:24:17;23.50;91.40
17986;DHT22;9118;48.122;11.546;2023-06-01T09:26:49;23.50;91.50
17986;DHT22;9118;48.122;11.546;2023-06-01T09:29:18;24.00;90.60
17986;DHT22;9118;48.122;11.546;2023-06-01T09:31:47;23.50;91.20
17986;DHT22;9118;48.122;11.546;2023-06-01T09:34:28;23.70;91.90
17986;DHT22;9118;48.122;11.546;2023-06-01T09:36:57;22.70;92.60
17986;DHT22;9118;48.122;11.546;2023-06-01T09:39:35;23.70;90.50
17986;DHT22;9118;48.122;11.546;2023-06-01T09:42:04;26.10;92.80
17986;DHT22;9118;48.122;11.546;2023-06-01T09:44:33;22.70;90.90
17986;DHT22;9118;48.122;11.546;2023-06-01T09:47:01;23.70;90.80
17986;DHT22;9118;48.122;11.546;2023-06-01T09:49:31;23.70;90.70
17986;DHT22;9118;48.122;11.546;2023-06-01T09:52:10;23.70;90.70
17986;DHT22;9118;48.122;11.546;2023-06-01T09:54:44;23.60;91.30
17986;DHT22;9118;48.122;11.546;2023-06-01T09:57:28;24.00;90.70
17986;DHT22;9118;48.122;11.546;2023-06-01T09:59:58;24.20;91.30
17986;DHT22;9118;48.122;11.546;2023-06-01T10:02:32;24.50;90.10
17986;DHT22;9118;48.122;11.546;2023-06-01T10:05:16;24.20;91.10
17986;DHT22;9118;48.122;11.546;2023-06-01T10:07:57;25.00;90.30
17986;DHT22;9118;48.122;11.546;2023-06-01T10:10:41;24.40;90.90
17986;DHT22;9118;48.122;11.546;2023-06-01T10:13:10;24.90;90.90
17986;DHT22;9118;48.122;11.546;2023-06-01T10:15:41;24.50;90.50
17986;DHT22;9118;48.122;11.546;2023-06-01T10:18:36;24.90;90.30
17986;DHT22;9118;48.122;11.546;2023-06-01T10:21:29;25.70;90.00
17986;DHT22;9118;48.122;11.546;2023-06-01T10:24:06;26.70;90.10
17986;DHT22;9118;48.122;11.546;2023-06-01T10:26:43;24.50;88.70
17986;DHT22;9118;48.122;11.546;2023-06-01T10:29:13;24.70;88.30
17986;DHT22;9118;48.122;11.546;2023-06-01T10:31:42;24.60;89.50
17986;DHT22;9118;48.122;11.546;2023-06-01T10:34:10;24.80;90.00
17986;DHT22;9118;48.122;11.546;2023-06-01T10:37:12;24.60;90.10
17986;DHT22;9118;48.122;11.546;2023-06-01T10:39:40;24.90;87.70
17986;DHT22;9118;48.122;11.546;2023-06-01T10:45:39;24.90;86.50
17986;DHT22;9118;48.122;11.546;2023-06-01T10:48:11;24.70;86.00
17986;DHT22;9118;48.122;11.546;2023-06-01T10:50:40;24.50;88.50
17986;DHT22;9118;48.122;11.546;2023-06-01T10:53:33;24.60;88.80
17986;DHT22;9118;48.122;11.546;2023-06-01T10:56:27;24.80;87.10
17986;DHT22;9118;48.122;11.546;2023-06-01T10:59:10;24.90;87.20
17986;DHT22;9118;48.122;11.546;2023-06-01T11:01:40;25.20;86.30
17986;DHT22;9118;48.122;11.546;2023-06-01T11:04:10;25.10;85.50
17986;DHT22;9118;48.122;11.546;2023-06-01T11:06:39;23.70;86.90
17986;DHT22;9118;48.122;11.546;2023-06-01T11:09:09;25.20;85.30
17986;DHT22;9118;48.122;11.546;2023-06-01T11:11:58;25.30;84.60
17986;DHT22;9118;48.122;11.546;2023-06-01T11:14:27;25.50;83.30
17986;DHT22;9118;48.122;11.546;2023-06-01T11:17:25;25.20;83.90
17986;DHT22;9118;48.122;11.546;2023-06-01T11:19:58;25.20;84.10
17986;DHT22;9118;48.122;11.546;2023-06-01T11:22:34;25.60;84.70
17986;DHT22;9118;48.122;11.546;2023-06-01T11:25:05;25.90;84.50
17986;DHT22;9118;48.122;11.546;2023-06-01T11:27:35;26.80;83.90
17986;DHT22;9118;48.122;11.546;2023-06-01T11:30:04;24.90;80.90
17986;DHT22;9118;48.122;11.546;2023-06-01T11:32:39;26.50;82.60
17986;DHT22;9118;48.122;11.546;2023-06-01T11:35:36;26.00;84.30
17986;DHT22;9118;48.122;11.546;2023-06-01T11:38:03;26.00;82.90
17986;DHT22;9118;48.122;11.546;2023-06-01T11:40:31;26.30;81.80
17986;DHT22;9118;48.122;11.546;2023-06-01T11:42:59;26.50;82.50
17986;DHT22;9118;48.122;11.546;2023-06-01T11:45:41;24.50;80.60
17986;DHT22;9118;48.122;11.546;2023-06-01T11:48:13;26.90;81.00
17986;DHT22;9118;48.122;11.546;2023-06-01T11:50:46;26.90;81.20
17986;DHT22;9118;48.122;11.546;2023-06-01T11:53:14;27.00;79.90
17986;DHT22;9118;48.122;11.546;2023-06-01T11:55:48;27.20;78.30
17986;DHT22;9118;48.122;11.546;2023-06-01T11:58:21;27.20;79.60
17986;DHT22;9118;48.122;11.546;2023-06-01T12:00:48;27.60;80.80
17986;DHT22;9118;48.122;11.546;2023-06-01T12:03:17;27.00;80.10
17986;DHT22;9118;48.122;11.546;2023-06-01T12:05:45;27.30;79.40
17986;DHT22;9118;48.122;11.546;2023-06-01T12:08:15;26.80;80.80
17986;DHT22;9118;48.122;11.546;2023-06-01T12:10:45;27.10;77.70
17986;DHT22;9118;48.122;11.546;2023-06-01T12:13:15;27.80;78.40
17986;DHT22;9118;48.122;11.546;2023-06-01T12:15:58;27.60;80.00
17986;DHT22;9118;48.122;11.546;2023-06-01T12:18:34;27.90;77.00
17986;DHT22;9118;48.122;11.546;2023-06-01T12:21:08;27.50;77.50
17986;DHT22;9118;48.122;11.546;2023-06-01T12:23:38;27.50;78.10
17986;DHT22;9118;48.122;11.546;2023-06-01T12:26:07;27.50;79.00
17986;DHT22;9118;48.122;11.546;2023-06-01T12:28:49;27.50;77.70
17986;DHT22;9118;48.122;11.546;2023-06-01T12:31:18;27.90;77.60
17986;DHT22;9118;48.122;11.546;2023-06-01T12:33:49;27.60;76.60
17986;DHT22;9118;48.122;11.546;2023-06-01T12:36:31;27.50;77.30
17986;DHT22;9118;48.122;11.546;2023-06-01T12:39:02;27.90;76.60
17986;DHT22;9118;48.122;11.546;2023-06-01T12:41:34;27.50;76.40
17986;DHT22;9118;48.122;11.546;2023-06-01T12:44:03;27.60;75.40
17986;DHT22;9118;48.122;11.546;2023-06-01T12:46:33;28.00;75.80
17986;DHT22;9118;48.122;11.546;2023-06-01T12:49:16;27.60;76.50
17986;DHT22;9118;48.122;11.546;2023-06-01T12:51:46;29.20;78.70
17986;DHT22;9118;48.122;11.546;2023-06-01T12:54:14;27.70;75.90
17986;DHT22;9118;48.122;11.546;2023-06-01T12:56:44;26.50;76.20
17986;DHT22;9118;48.122;11.546;2023-06-01T12:59:20;27.90;77.70
17986;DHT22;9118;48.122;11.546;2023-06-01T13:01:52;27.70;74.40
17986;DHT22;9118;48.122;11.546;2023-06-01T13:04:37;27.70;76.40
17986;DHT22;9118;48.122;11.546;2023-06-01T13:07:08;26.70;76.70
17986;DHT22;9118;48.122;11.546;2023-06-01T13:09:36;28.20;77.80
17986;DHT22;9118;48.122;11.546;2023-06-01T13:12:04;28.20;76.50
17986;DHT22;9118;48.122;11.546;2023-06-01T13:14:33;28.20;77.70
17986;DHT22;9118;48.122;11.546;2023-06-01T13:17:06;28.10;75.40
17986;DHT22;9118;48.122;11.546;2023-06-01T13:19:38;29.00;77.70
17986;DHT22;9118;48.122;11.546;2023-06-01T13:22:08;28.30;75.20
17986;DHT22;9118;48.122;11.546;2023-06-01T13:24:35;28.30;76.00
17986;DHT22;9118;48.122;11.546;2023-06-01T13:27:07;28.70;74.90
17986;DHT22;9118;48.122;11.546;2023-06-01T13:29:37;28.80;73.20
17986;DHT22;9118;48.122;11.546;2023-06-01T13:32:10;28.90;75.40
17986;DHT22;9118;48.122;11.546;2023-06-01T13:34:45;28.70;75.90
17986;DHT22;9118;48.122;11.546;2023-06-01T13:37:14;29.10;74.50
17986;DHT22;9118;48.122;11.546;2023-06-01T13:39:43;28.80;74.40
17986;DHT22;9118;48.122;11.546;2023-06-01T13:42:12;29.00;74.50
17986;DHT22;9118;48.122;11.546;2023-06-01T13:44:43;28.90;74.20
17986;DHT22;9118;48.122;11.546;2023-06-01T13:47:12;28.70;75.60
17986;DHT22;9118;48.122;11.546;2023-06-01T13:49:46;28.80;75.90
17986;DHT22;9118;48.122;11.546;2023-06-01T13:52:13;29.70;75.40
17986;DHT22;9118;48.122;11.546;2023-06-01T13:54:41;30.40;74.30
17986;DHT22;9118;48.122;11.546;2023-06-01T13:57:09;27.50;72.80
17986;DHT22;9118;48.122;11.546;2023-06-01T13:59:36;32.00;71.00
17986;DHT22;9118;48.122;11.546;2023-06-01T14:02:05;33.00;69.90
17986;DHT22;9118;48.122;11.546;2023-06-01T14:04:34;34.40;69.80
17986;DHT22;9118;48.122;11.546;2023-06-01T14:07:15;35.60;65.20
17986;DHT22;9118;48.122;11.546;2023-06-01T14:09:46;37.90;63.20
17986;DHT22;9118;48.122;11.546;2023-06-01T14:12:14;39.00;65.80
17986;DHT22;9118;48.122;11.546;2023-06-01T14:14:41;39.70;68.30
17986;DHT22;9118;48.122;11.546;2023-06-01T14:17:10;38.30;65.60
17986;DHT22;9118;48.122;11.546;2023-06-01T14:19:43;36.70;68.00
17986;DHT22;9118;48.122;11.546;2023-06-01T14:22:20;35.60;71.10
17986;DHT22;9118;48.122;11.546;2023-06-01T14:24:51;34.80;68.90
17986;DHT22;9118;48.122;11.546;2023-06-01T14:27:33;33.50;70.80
17986;DHT22;9118;48.122;11.546;2023-06-01T14:30:03;32.70;73.10
17986;DHT22;9118;48.122;11.546;2023-06-01T14:32:43;32.20;73.60
17986;DHT22;9118;48.122;11.546;2023-06-01T14:35:13;32.30;73.20
17986;DHT22;9118;48.122;11.546;2023-06-01T14:37:44;30.20;69.50
17986;DHT22;9118;48.122;11.546;2023-06-01T14:40:14;31.90;69.80
17986;DHT22;9118;48.122;11.546;2023-06-01T14:42:43;33.70;72.60
17986;DHT22;9118;48.122;11.546;2023-06-01T14:45:18;34.50;68.80
17986;DHT22;9118;48.122;11.546;2023-06-01T14:47:48;36.00;68.30
17986;DHT22;9118;48.122;11.546;2023-06-01T14:50:16;37.00;65.50
17986;DHT22;9118;48.122;11.546;2023-06-01T14:53:03;38.30;63.90
17986;DHT22;9118;48.122;11.546;2023-06-01T14:55:39;40.10;62.00
17986;DHT22;9118;48.122;11.546;2023-06-01T14:58:08;41.10;62.30
17986;DHT22;9118;48.122;11.546;2023-06-01T15:00:42;39.20;61.60
17986;DHT22;9118;48.122;11.546;2023-06-01T15:03:10;38.60;62.40
17986;DHT22;9118;48.122;11.546;2023-06-01T15:05:40;36.00;64.80
17986;DHT22;9118;48.122;11.546;2023-06-01T15:08:26;36.00;64.20
17986;DHT22;9118;48.122;11.546;2023-06-01T15:10:57;37.40;64.50
17986;DHT22;9118;48.122;11.546;2023-06-01T15:13:28;36.90;66.00
17986;DHT22;9118;48.122;11.546;2023-06-01T15:15:57;37.30;64.50
17986;DHT22;9118;48.122;11.546;2023-06-01T15:18:24;38.90;61.10
17986;DHT22;9118;48.122;11.546;2023-06-01T15:20:52;39.50;60.70
17986;DHT22;9118;48.122;11.546;2023-06-01T15:23:24;38.50;60.10
17986;DHT22;9118;48.122;11.546;2023-06-01T15:25:58;37.90;60.10
17986;DHT22;9118;48.122;11.546;2023-06-01T15:28:27;37.10;61.40
17986;DHT22;9118;48.122;11.546;2023-06-01T15:31:08;36.50;61.60
17986;DHT22;9118;48.122;11.546;2023-06-01T15:33:39;34.40;61.70
17986;DHT22;9118;48.122;11.546;2023-06-01T15:36:10;32.70;65.90
17986;DHT22;9118;48.122;11.546;2023-06-01T15:38:41;33.00;64.60
17986;DHT22;9118;48.122;11.546;2023-06-01T15:41:12;32.60;67.20
17986;DHT22;9118;48.122;11.546;2023-06-01T15:43:42;31.60;68.90
17986;DHT22;9118;48.122;11.546;2023-06-01T15:46:23;31.20;65.90
17986;DHT22;9118;48.122;11.546;2023-06-01T15:49:04;30.90;66.20
17986;DHT22;9118;48.122;11.546;2023-06-01T15:51:37;30.40;68.10
17986;DHT22;9118;48.122;11.546;2023-06-01T15:54:18;29.80;68.30
17986;DHT22;9118;48.122;11.546;2023-06-01T16:00:01;29.70;71.80
17986;DHT22;9118;48.122;11.546;2023-06-01T16:02:28;29.30;70.90
17986;DHT22;9118;48.122;11.546;2023-06-01T16:05:08;29.30;69.70
17986;DHT22;9118;48.122;11.546;2023-06-01T16:07:38;30.30;71.00
17986;DHT22;9118;48.122;11.546;2023-06-01T16:10:12;29.60;71.40
17986;DHT22;9118;48.122;11.546;2023-06-01T16:12:42;29.60;71.60
17986;DHT22;9118;48.122;11.546;2023-06-01T16:15:15;29.50;72.00
17986;DHT22;9118;48.122;11.546;2023-06-01T16:17:43;29.50;72.60
17986;DHT22;9118;48.122;11.546;2023-06-01T16:20:13;29.20;72.50
17986;DHT22;9118;48.122;11.546;2023-06-01T16:22:41;29.80;74.70
17986;DHT22;9118;48.122;11.546;2023-06-01T16:25:11;29.30;74.50
17986;DHT22;9118;48.122;11.546;2023-06-01T16:27:40;29.70;74.40
17986;DHT22;9118;48.122;11.546;2023-06-01T16:30:24;29.50;72.10
17986;DHT22;9118;48.122;11.546;2023-06-01T16:32:52;30.10;71.80
17986;DHT22;9118;48.122;11.546;2023-06-01T16:35:19;29.40;73.00
17986;DHT22;9118;48.122;11.546;2023-06-01T16:37:46;29.70;74.50
17986;DHT22;9118;48.122;11.546;2023-06-01T16:40:15;27.40;73.50
17986;DHT22;9118;48.122;11.546;2023-06-01T16:42:43;28.60;75.40